sensor_id;sensor_type;location;lat;lon;timestamp;P1;durP1;ratioP1;P2;durP2;ratioP2
15679;SDS011;15488;48.114;11.532;2022-10-16T00:01:26;3.33;;;2.37;;
15679;SDS011;15488;48.114;11.532;2022-10-16T00:03:56;3.57;;;2.30;;
15679;SDS011;15488;48.114;11.532;2022-10-16T00:06:25;2.50;;;2.10;;
15679;SDS011;15488;48.114;11.532;2022-10-16T00:08:53;2.87;;;2.13;;
15679;SDS011;15488;48.114;11.532;2022-10-16T00:11:24;2.63;;;1.80;;
15679;SDS011;15488;48.114;11.532;2022-10-16T00:13:55;2.30;;;2.10;;
15679;SDS011;15488;48.114;11.532;2022-10-16T00:16:23;4.20;;;1.90;;
15679;SDS011;15488;48.114;11.532;2022-10-16T00:18:51;4.20;;;2.30;;
15679;SDS011;15488;48.114;11.532;2022-10-16T00:21:21;2.70;;;2.30;;
15679;SDS011;15488;48.114;11.532;2022-10-16T00:23:50;4.10;;;2.33;;
15679;SDS011;15488;48.114;11.532;2022-10-16T00:26:19;3.03;;;2.17;;
15679;SDS011;15488;48.114;11.532;2022-10-16T00:28:47;2.40;;;1.67;;
15679;SDS011;15488;48.114;11.532;2022-10-16T00:31:17;1.90;;;1.67;;
15679;SDS011;15488;48.114;11.532;2022-10-16T00:33:45;3.33;;;1.60;;
15679;SDS011;15488;48.114;11.532;2022-10-16T00:36:13;2.13;;;1.57;;
15679;SDS011;15488;48.114;11.532;2022-10-16T00:38:43;1.50;;;1.40;;
15679;SDS011;15488;48.114;11.532;2022-10-16T00:41:12;1.87;;;1.20;;
15679;SDS011;15488;48.114;11.532;2022-10-16T00:43:42;1.90;;;1.33;;
15679;SDS011;15488;48.114;11.532;2022-10-16T00:46:15;1.30;;;1.20;;
15679;SDS011;15488;48.114;11.532;2022-10-16T00:48:46;1.77;;;1.17;;
15679;SDS011;15488;48.114;11.532;2022-10-16T00:51:17;3.37;;;1.20;;
15679;SDS011;15488;48.114;11.532;2022-10-16T00:53:50;1.50;;;1.13;;
15679;SDS011;15488;48.114;11.532;2022-10-16T00:56:18;1.53;;;1.00;;
15679;SDS011;15488;48.114;11.532;2022-10-16T00:58:46;2.43;;;1.13;;
15679;SDS011;15488;48.114;11.532;2022-10-16T01:01:14;1.83;;;1.30;;
15679;SDS011;15488;48.114;11.532;2022-10-16T01:03:41;2.07;;;1.17;;
15679;SDS011;15488;48.114;11.532;2022-10-16T01:06:14;2.47;;;1.53;;
15679;SDS011;15488;48.114;11.532;2022-10-16T01:08:55;2.97;;;1.20;;
15679;SDS011;15488;48.114;11.532;2022-10-16T01:11:33;2.17;;;1.30;;
15679;SDS011;15488;48.114;11.532;2022-10-16T01:14:09;1.57;;;1.27;;
15679;SDS011;15488;48.114;11.532;2022-10-16T01:16:43;1.53;;;1.40;;
15679;SDS011;15488;48.114;11.532;2022-10-16T01:19:16;1.50;;;1.10;;
15679;SDS011;15488;48.114;11.532;2022-10-16T01:21:52;1.20;;;1.10;;
15679;SDS011;15488;48.114;11.532;2022-10-16T01:24:27;2.00;;;1.23;;
15679;SDS011;15488;48.114;11.532;2022-10-16T01:27:10;1.47;;;1.30;;
15679;SDS011;15488;48.114;11.532;2022-10-16T01:29:41;1.60;;;1.10;;
15679;SDS011;15488;48.114;11.532;2022-10-16T01:32:17;1.30;;;1.20;;
15679;SDS011;15488;48.114;11.532;2022-10-16T01:34:56;1.33;;;1.20;;
15679;SDS011;15488;48.114;11.532;2022-10-16T01:37:30;1.30;;;1.20;;
15679;SDS011;15488;48.114;11.532;2022-10-16T01:40:03;1.20;;;1.10;;
15679;SDS011;15488;48.114;11.532;2022-10-16T01:42:37;1.40;;;1.30;;
15679;SDS011;15488;48.114;11.532;2022-10-16T01:45:08;1.87;;;1.30;;
15679;SDS011;15488;48.114;11.532;2022-10-16T01:47:39;2.60;;;1.30;;
15679;SDS011;15488;48.114;11.532;2022-10-16T01:50:08;1.40;;;1.30;;
15679;SDS011;15488;48.114;11.532;2022-10-16T01:52:43;2.53;;;1.30;;
15679;SDS011;15488;48.114;11.532;2022-10-16T01:55:16;1.57;;;1.30;;
15679;SDS011;15488;48.114;11.532;2022-10-16T01:57:49;1.40;;;1.30;;
15679;SDS011;15488;48.114;11.532;2022-10-16T02:00:19;2.20;;;1.37;;
15679;SDS011;15488;48.114;11.532;2022-10-16T02:02:48;2.33;;;1.27;;
15679;SDS011;15488;48.114;11.532;2022-10-16T02:05:20;1.27;;;1.10;;
15679;SDS011;15488;48.114;11.532;2022-10-16T02:07:51;1.33;;;1.10;;
15679;SDS011;15488;48.114;11.532;2022-10-16T02:10:19;0.90;;;0.90;;
15679;SDS011;15488;48.114;11.532;2022-10-16T02:12:49;1.77;;;1.17;;
15679;SDS011;15488;48.114;11.532;2022-10-16T02:15:22;1.27;;;1.10;;
15679;SDS011;15488;48.114;11.532;2022-10-16T02:17:49;1.17;;;1.07;;
15679;SDS011;15488;48.114;11.532;2022-10-16T02:20:17;1.47;;;1.10;;
15679;SDS011;15488;48.114;11.532;2022-10-16T02:22:47;2.27;;;1.00;;
15679;SDS011;15488;48.114;11.532;2022-10-16T02:25:17;1.70;;;0.90;;
15679;SDS011;15488;48.114;11.532;2022-10-16T02:27:50;1.37;;;1.00;;
15679;SDS011;15488;48.114;11.532;2022-10-16T02:30:24;1.10;;;1.00;;
15679;SDS011;15488;48.114;11.532;2022-10-16T02:32:55;2.00;;;0.97;;
15679;SDS011;15488;48.114;11.532;2022-10-16T02:35:25;1.10;;;1.00;;
15679;SDS011;15488;48.114;11.532;2022-10-16T02:37:53;0.87;;;0.87;;
15679;SDS011;15488;48.114;11.532;2022-10-16T02:40:22;2.73;;;0.90;;
15679;SDS011;15488;48.114;11.532;2022-10-16T02:42:53;1.60;;;1.00;;
15679;SDS011;15488;48.114;11.532;2022-10-16T02:45:21;1.20;;;1.10;;
15679;SDS011;15488;48.114;11.532;2022-10-16T02:47:49;2.43;;;1.00;;
15679;SDS011;15488;48.114;11.532;2022-10-16T02:50:16;2.37;;;1.03;;
15679;SDS011;15488;48.114;11.532;2022-10-16T02:52:44;1.47;;;1.00;;
15679;SDS011;15488;48.114;11.532;2022-10-16T02:55:11;0.90;;;0.90;;
15679;SDS011;15488;48.114;11.532;2022-10-16T02:57:39;1.00;;;0.90;;
15679;SDS011;15488;48.114;11.532;2022-10-16T03:00:09;1.03;;;1.00;;
15679;SDS011;15488;48.114;11.532;2022-10-16T03:02:38;2.07;;;1.10;;
15679;SDS011;15488;48.114;11.532;2022-10-16T03:05:06;1.50;;;1.00;;
15679;SDS011;15488;48.114;11.532;2022-10-16T03:07:35;0.90;;;0.90;;
15679;SDS011;15488;48.114;11.532;2022-10-16T03:10:02;0.83;;;0.83;;
15679;SDS011;15488;48.114;11.532;2022-10-16T03:12:31;1.10;;;0.83;;
15679;SDS011;15488;48.114;11.532;2022-10-16T03:14:58;1.83;;;1.20;;
15679;SDS011;15488;48.114;11.532;2022-10-16T03:17:27;1.37;;;1.20;;
15679;SDS011;15488;48.114;11.532;2022-10-16T03:19:54;1.43;;;0.90;;
15679;SDS011;15488;48.114;11.532;2022-10-16T03:22:22;1.27;;;1.17;;
15679;SDS011;15488;48.114;11.532;2022-10-16T03:24:49;2.50;;;1.10;;
15679;SDS011;15488;48.114;11.532;2022-10-16T03:27:17;1.30;;;1.20;;
15679;SDS011;15488;48.114;11.532;2022-10-16T03:29:44;1.10;;;1.00;;
15679;SDS011;15488;48.114;11.532;2022-10-16T03:32:12;1.40;;;1.30;;
15679;SDS011;15488;48.114;11.532;2022-10-16T03:34:40;1.30;;;1.20;;
15679;SDS011;15488;48.114;11.532;2022-10-16T03:37:08;1.40;;;1.03;;
15679;SDS011;15488;48.114;11.532;2022-10-16T03:39:36;3.10;;;1.17;;
15679;SDS011;15488;48.114;11.532;2022-10-16T03:42:03;2.47;;;1.27;;
15679;SDS011;15488;48.114;11.532;2022-10-16T03:44:30;2.33;;;1.40;;
15679;SDS011;15488;48.114;11.532;2022-10-16T03:46:58;1.60;;;1.30;;
15679;SDS011;15488;48.114;11.532;2022-10-16T03:49:25;2.90;;;1.37;;
15679;SDS011;15488;48.114;11.532;2022-10-16T03:51:54;1.27;;;1.17;;
15679;SDS011;15488;48.114;11.532;2022-10-16T03:54:21;1.70;;;1.60;;
15679;SDS011;15488;48.114;11.532;2022-10-16T03:56:49;1.40;;;1.30;;
15679;SDS011;15488;48.114;11.532;2022-10-16T03:59:16;1.33;;;1.20;;
15679;SDS011;15488;48.114;11.532;2022-10-16T04:01:44;1.30;;;1.10;;
15679;SDS011;15488;48.114;11.532;2022-10-16T04:04:11;1.23;;;1.00;;
15679;SDS011;15488;48.114;11.532;2022-10-16T04:06:39;1.90;;;1.40;;
15679;SDS011;15488;48.114;11.532;2022-10-16T04:09:07;1.60;;;1.20;;
15679;SDS011;15488;48.114;11.532;2022-10-16T04:11:35;1.70;;;1.10;;
15679;SDS011;15488;48.114;11.532;2022-10-16T04:14:02;1.10;;;0.90;;
15679;SDS011;15488;48.114;11.532;2022-10-16T04:16:30;1.30;;;1.20;;
15679;SDS011;15488;48.114;11.532;2022-10-16T04:18:57;1.37;;;1.27;;
15679;SDS011;15488;48.114;11.532;2022-10-16T04:21:24;2.00;;;1.47;;
15679;SDS011;15488;48.114;11.532;2022-10-16T04:23:55;2.33;;;1.17;;
15679;SDS011;15488;48.114;11.532;2022-10-16T04:26:24;1.93;;;1.20;;
15679;SDS011;15488;48.114;11.532;2022-10-16T04:28:51;2.50;;;1.27;;
15679;SDS011;15488;48.114;11.532;2022-10-16T04:31:19;1.10;;;1.00;;
15679;SDS011;15488;48.114;11.532;2022-10-16T04:33:46;1.50;;;1.17;;
15679;SDS011;15488;48.114;11.532;2022-10-16T04:36:14;1.10;;;1.00;;
15679;SDS011;15488;48.114;11.532;2022-10-16T04:38:41;1.07;;;0.97;;
15679;SDS011;15488;48.114;11.532;2022-10-16T04:41:09;3.37;;;1.40;;
15679;SDS011;15488;48.114;11.532;2022-10-16T04:43:37;1.27;;;1.17;;
15679;SDS011;15488;48.114;11.532;2022-10-16T04:46:05;1.10;;;1.00;;
15679;SDS011;15488;48.114;11.532;2022-10-16T04:48:32;1.20;;;1.10;;
15679;SDS011;15488;48.114;11.532;2022-10-16T04:51:00;1.17;;;1.07;;
15679;SDS011;15488;48.114;11.532;2022-10-16T04:53:30;1.30;;;1.03;;
15679;SDS011;15488;48.114;11.532;2022-10-16T04:55:58;1.37;;;1.07;;
15679;SDS011;15488;48.114;11.532;2022-10-16T04:58:26;1.30;;;1.20;;
15679;SDS011;15488;48.114;11.532;2022-10-16T05:00:54;1.70;;;1.30;;
15679;SDS011;15488;48.114;11.532;2022-10-16T05:03:22;1.20;;;1.10;;
15679;SDS011;15488;48.114;11.532;2022-10-16T05:05:49;1.53;;;1.33;;
15679;SDS011;15488;48.114;11.532;2022-10-16T05:08:17;1.30;;;1.20;;
15679;SDS011;15488;48.114;11.532;2022-10-16T05:10:44;1.67;;;1.30;;
15679;SDS011;15488;48.114;11.532;2022-10-16T05:13:12;1.33;;;1.23;;
15679;SDS011;15488;48.114;11.532;2022-10-16T05:15:39;2.63;;;1.30;;
15679;SDS011;15488;48.114;11.532;2022-10-16T05:18:09;1.60;;;1.07;;
15679;SDS011;15488;48.114;11.532;2022-10-16T05:20:36;1.40;;;1.30;;
15679;SDS011;15488;48.114;11.532;2022-10-16T05:23:03;1.40;;;1.30;;
15679;SDS011;15488;48.114;11.532;2022-10-16T05:25:31;1.20;;;1.10;;
15679;SDS011;15488;48.114;11.532;2022-10-16T05:27:58;1.37;;;1.27;;
15679;SDS011;15488;48.114;11.532;2022-10-16T05:30:26;1.60;;;1.37;;
15679;SDS011;15488;48.114;11.532;2022-10-16T05:32:53;1.77;;;1.10;;
15679;SDS011;15488;48.114;11.532;2022-10-16T05:35:22;8.47;;;6.23;;
15679;SDS011;15488;48.114;11.532;2022-10-16T05:37:49;11.77;;;8.63;;
15679;SDS011;15488;48.114;11.532;2022-10-16T05:40:21;13.20;;;9.30;;
15679;SDS011;15488;48.114;11.532;2022-10-16T05:42:48;4.03;;;3.03;;
15679;SDS011;15488;48.114;11.532;2022-10-16T05:45:16;3.17;;;2.40;;
15679;SDS011;15488;48.114;11.532;2022-10-16T05:47:43;3.93;;;2.63;;
15679;SDS011;15488;48.114;11.532;2022-10-16T05:50:10;6.13;;;3.70;;
15679;SDS011;15488;48.114;11.532;2022-10-16T05:52:39;2.90;;;2.37;;
15679;SDS011;15488;48.114;11.532;2022-10-16T05:55:07;2.10;;;1.90;;
15679;SDS011;15488;48.114;11.532;2022-10-16T05:57:34;2.87;;;1.63;;
15679;SDS011;15488;48.114;11.532;2022-10-16T06:00:02;1.80;;;1.40;;
15679;SDS011;15488;48.114;11.532;2022-10-16T06:02:30;2.60;;;1.70;;
15679;SDS011;15488;48.114;11.532;2022-10-16T06:04:57;3.10;;;1.50;;
15679;SDS011;15488;48.114;11.532;2022-10-16T06:07:25;1.60;;;1.50;;
15679;SDS011;15488;48.114;11.532;2022-10-16T06:09:56;1.40;;;1.30;;
15679;SDS011;15488;48.114;11.532;2022-10-16T06:12:24;2.60;;;1.60;;
15679;SDS011;15488;48.114;11.532;2022-10-16T06:14:52;2.20;;;1.90;;
15679;SDS011;15488;48.114;11.532;2022-10-16T06:17:20;2.50;;;1.97;;
15679;SDS011;15488;48.114;11.532;2022-10-16T06:19:47;2.00;;;1.80;;
15679;SDS011;15488;48.114;11.532;2022-10-16T06:22:15;1.67;;;1.50;;
15679;SDS011;15488;48.114;11.532;2022-10-16T06:24:42;1.63;;;1.30;;
15679;SDS011;15488;48.114;11.532;2022-10-16T06:27:11;1.77;;;1.47;;
15679;SDS011;15488;48.114;11.532;2022-10-16T06:29:38;1.87;;;1.40;;
15679;SDS011;15488;48.114;11.532;2022-10-16T06:32:06;1.70;;;1.50;;
15679;SDS011;15488;48.114;11.532;2022-10-16T06:34:33;2.67;;;1.60;;
15679;SDS011;15488;48.114;11.532;2022-10-16T06:37:00;1.97;;;1.77;;
15679;SDS011;15488;48.114;11.532;2022-10-16T06:39:28;1.60;;;1.50;;
15679;SDS011;15488;48.114;11.532;2022-10-16T06:41:55;2.83;;;1.73;;
15679;SDS011;15488;48.114;11.532;2022-10-16T06:44:24;2.37;;;1.83;;
15679;SDS011;15488;48.114;11.532;2022-10-16T06:46:51;1.57;;;1.47;;
15679;SDS011;15488;48.114;11.532;2022-10-16T06:49:19;2.07;;;1.87;;
15679;SDS011;15488;48.114;11.532;2022-10-16T06:51:47;1.80;;;1.70;;
15679;SDS011;15488;48.114;11.532;2022-10-16T06:54:15;2.10;;;1.90;;
15679;SDS011;15488;48.114;11.532;2022-10-16T06:56:43;3.97;;;1.80;;
15679;SDS011;15488;48.114;11.532;2022-10-16T06:59:10;3.07;;;1.90;;
15679;SDS011;15488;48.114;11.532;2022-10-16T07:01:39;1.97;;;1.77;;
15679;SDS011;15488;48.114;11.532;2022-10-16T07:04:07;2.23;;;1.83;;
15679;SDS011;15488;48.114;11.532;2022-10-16T07:06:34;2.13;;;1.70;;
15679;SDS011;15488;48.114;11.532;2022-10-16T07:09:03;2.60;;;1.70;;
15679;SDS011;15488;48.114;11.532;2022-10-16T07:11:32;2.27;;;1.70;;
15679;SDS011;15488;48.114;11.532;2022-10-16T07:14:00;2.00;;;1.70;;
15679;SDS011;15488;48.114;11.532;2022-10-16T07:16:28;1.87;;;1.60;;
15679;SDS011;15488;48.114;11.532;2022-10-16T07:18:58;2.80;;;1.90;;
15679;SDS011;15488;48.114;11.532;2022-10-16T07:21:27;2.10;;;1.90;;
15679;SDS011;15488;48.114;11.532;2022-10-16T07:24:00;2.57;;;1.87;;
15679;SDS011;15488;48.114;11.532;2022-10-16T07:26:28;2.17;;;1.97;;
15679;SDS011;15488;48.114;11.532;2022-10-16T07:28:57;2.90;;;2.03;;
15679;SDS011;15488;48.114;11.532;2022-10-16T07:31:25;1.60;;;1.50;;
15679;SDS011;15488;48.114;11.532;2022-10-16T07:33:53;2.13;;;1.77;;
15679;SDS011;15488;48.114;11.532;2022-10-16T07:36:22;1.50;;;1.37;;
15679;SDS011;15488;48.114;11.532;2022-10-16T07:38:50;3.03;;;1.60;;
15679;SDS011;15488;48.114;11.532;2022-10-16T07:41:18;1.80;;;1.67;;
15679;SDS011;15488;48.114;11.532;2022-10-16T07:43:46;2.47;;;1.80;;
15679;SDS011;15488;48.114;11.532;2022-10-16T07:46:14;1.80;;;1.60;;
15679;SDS011;15488;48.114;11.532;2022-10-16T07:48:42;1.67;;;1.57;;
15679;SDS011;15488;48.114;11.532;2022-10-16T07:51:12;2.20;;;1.57;;
15679;SDS011;15488;48.114;11.532;2022-10-16T07:53:42;1.67;;;1.57;;
15679;SDS011;15488;48.114;11.532;2022-10-16T07:56:10;3.30;;;1.70;;
15679;SDS011;15488;48.114;11.532;2022-10-16T07:58:37;2.47;;;1.60;;
15679;SDS011;15488;48.114;11.532;2022-10-16T08:01:06;1.67;;;1.43;;
15679;SDS011;15488;48.114;11.532;2022-10-16T08:03:35;1.50;;;1.40;;
15679;SDS011;15488;48.114;11.532;2022-10-16T08:06:03;1.83;;;1.63;;
15679;SDS011;15488;48.114;11.532;2022-10-16T08:08:31;1.73;;;1.50;;
15679;SDS011;15488;48.114;11.532;2022-10-16T08:11:00;1.60;;;1.50;;
15679;SDS011;15488;48.114;11.532;2022-10-16T08:13:28;1.80;;;1.43;;
15679;SDS011;15488;48.114;11.532;2022-10-16T08:15:56;1.63;;;1.53;;
15679;SDS011;15488;48.114;11.532;2022-10-16T08:18:23;3.63;;;2.33;;
15679;SDS011;15488;48.114;11.532;2022-10-16T08:20:54;5.67;;;3.97;;
15679;SDS011;15488;48.114;11.532;2022-10-16T08:23:23;5.70;;;4.53;;
15679;SDS011;15488;48.114;11.532;2022-10-16T08:25:51;2.10;;;1.70;;
15679;SDS011;15488;48.114;11.532;2022-10-16T08:28:20;2.10;;;1.63;;
15679;SDS011;15488;48.114;11.532;2022-10-16T08:30:49;1.70;;;1.50;;
15679;SDS011;15488;48.114;11.532;2022-10-16T08:33:16;1.63;;;1.53;;
15679;SDS011;15488;48.114;11.532;2022-10-16T08:35:49;1.57;;;1.27;;
15679;SDS011;15488;48.114;11.532;2022-10-16T08:38:18;1.80;;;1.50;;
15679;SDS011;15488;48.114;11.532;2022-10-16T08:40:46;1.90;;;1.60;;
15679;SDS011;15488;48.114;11.532;2022-10-16T08:46:21;2.07;;;1.27;;
15679;SDS011;15488;48.114;11.532;2022-10-16T08:48:58;1.50;;;1.40;;
15679;SDS011;15488;48.114;11.532;2022-10-16T08:51:26;2.30;;;1.80;;
15679;SDS011;15488;48.114;11.532;2022-10-16T08:53:57;1.80;;;1.50;;
15679;SDS011;15488;48.114;11.532;2022-10-16T08:56:27;1.97;;;1.67;;
15679;SDS011;15488;48.114;11.532;2022-10-16T08:58:57;1.60;;;1.40;;
15679;SDS011;15488;48.114;11.532;2022-10-16T09:01:26;1.23;;;1.13;;
15679;SDS011;15488;48.114;11.532;2022-10-16T09:04:07;1.40;;;1.27;;
15679;SDS011;15488;48.114;11.532;2022-10-16T09:06:50;1.40;;;1.30;;
15679;SDS011;15488;48.114;11.532;2022-10-16T09:09:34;2.07;;;1.47;;
15679;SDS011;15488;48.114;11.532;2022-10-16T09:12:16;1.60;;;1.30;;
15679;SDS011;15488;48.114;11.532;2022-10-16T09:14:54;1.37;;;1.23;;
15679;SDS011;15488;48.114;11.532;2022-10-16T09:17:32;1.30;;;1.20;;
15679;SDS011;15488;48.114;11.532;2022-10-16T09:20:18;1.37;;;1.27;;
15679;SDS011;15488;48.114;11.532;2022-10-16T09:23:00;1.57;;;1.40;;
15679;SDS011;15488;48.114;11.532;2022-10-16T09:25:43;2.30;;;2.10;;
15679;SDS011;15488;48.114;11.532;2022-10-16T09:28:12;2.17;;;1.90;;
15679;SDS011;15488;48.114;11.532;2022-10-16T09:30:42;2.00;;;1.80;;
15679;SDS011;15488;48.114;11.532;2022-10-16T09:33:10;2.43;;;1.60;;
15679;SDS011;15488;48.114;11.532;2022-10-16T09:35:40;1.80;;;1.60;;
15679;SDS011;15488;48.114;11.532;2022-10-16T09:38:09;2.10;;;1.90;;
15679;SDS011;15488;48.114;11.532;2022-10-16T09:40:47;2.43;;;1.70;;
15679;SDS011;15488;48.114;11.532;2022-10-16T09:43:22;1.77;;;1.60;;
15679;SDS011;15488;48.114;11.532;2022-10-16T09:45:54;2.00;;;1.80;;
15679;SDS011;15488;48.114;11.532;2022-10-16T09:48:23;1.73;;;1.63;;
15679;SDS011;15488;48.114;11.532;2022-10-16T09:50:56;2.53;;;1.50;;
15679;SDS011;15488;48.114;11.532;2022-10-16T09:53:25;1.67;;;1.50;;
15679;SDS011;15488;48.114;11.532;2022-10-16T09:56:04;1.77;;;1.67;;
15679;SDS011;15488;48.114;11.532;2022-10-16T09:58:32;1.80;;;1.70;;
15679;SDS011;15488;48.114;11.532;2022-10-16T10:01:01;1.40;;;1.30;;
15679;SDS011;15488;48.114;11.532;2022-10-16T10:03:35;2.53;;;1.80;;
15679;SDS011;15488;48.114;11.532;2022-10-16T10:06:06;1.90;;;1.70;;
15679;SDS011;15488;48.114;11.532;2022-10-16T10:08:52;3.00;;;2.70;;
15679;SDS011;15488;48.114;11.532;2022-10-16T10:11:36;4.67;;;3.33;;
15679;SDS011;15488;48.114;11.532;2022-10-16T10:14:22;2.53;;;1.87;;
15679;SDS011;15488;48.114;11.532;2022-10-16T10:17:01;3.00;;;2.50;;
15679;SDS011;15488;48.114;11.532;2022-10-16T10:19:37;1.73;;;1.60;;
15679;SDS011;15488;48.114;11.532;2022-10-16T10:22:13;2.00;;;1.90;;
15679;SDS011;15488;48.114;11.532;2022-10-16T10:24:54;1.73;;;1.63;;
15679;SDS011;15488;48.114;11.532;2022-10-16T10:27:24;1.80;;;1.70;;
15679;SDS011;15488;48.114;11.532;2022-10-16T10:29:59;2.77;;;1.90;;
15679;SDS011;15488;48.114;11.532;2022-10-16T10:32:35;2.57;;;2.30;;
15679;SDS011;15488;48.114;11.532;2022-10-16T10:35:14;3.80;;;2.20;;
15679;SDS011;15488;48.114;11.532;2022-10-16T10:37:51;4.73;;;2.67;;
15679;SDS011;15488;48.114;11.532;2022-10-16T10:40:30;4.50;;;3.87;;
15679;SDS011;15488;48.114;11.532;2022-10-16T10:43:07;1.40;;;1.30;;
15679;SDS011;15488;48.114;11.532;2022-10-16T10:45:41;1.33;;;1.23;;
15679;SDS011;15488;48.114;11.532;2022-10-16T10:51:11;1.63;;;1.40;;
15679;SDS011;15488;48.114;11.532;2022-10-16T10:53:47;3.23;;;1.70;;
15679;SDS011;15488;48.114;11.532;2022-10-16T10:56:25;1.47;;;1.37;;
15679;SDS011;15488;48.114;11.532;2022-10-16T11:02:10;3.57;;;3.27;;
15679;SDS011;15488;48.114;11.532;2022-10-16T11:04:58;1.80;;;1.60;;
15679;SDS011;15488;48.114;11.532;2022-10-16T11:07:54;1.80;;;1.40;;
15679;SDS011;15488;48.114;11.532;2022-10-16T11:10:25;1.37;;;1.27;;
15679;SDS011;15488;48.114;11.532;2022-10-16T11:12:55;1.83;;;1.73;;
15679;SDS011;15488;48.114;11.532;2022-10-16T11:15:30;1.63;;;1.20;;
15679;SDS011;15488;48.114;11.532;2022-10-16T11:18:04;1.20;;;1.10;;
15679;SDS011;15488;48.114;11.532;2022-10-16T11:20:37;1.53;;;1.10;;
15679;SDS011;15488;48.114;11.532;2022-10-16T11:23:11;1.07;;;1.00;;
15679;SDS011;15488;48.114;11.532;2022-10-16T11:25:44;1.60;;;1.20;;
15679;SDS011;15488;48.114;11.532;2022-10-16T11:28:14;1.10;;;1.00;;
15679;SDS011;15488;48.114;11.532;2022-10-16T11:30:46;0.90;;;0.90;;
15679;SDS011;15488;48.114;11.532;2022-10-16T11:33:24;1.20;;;1.10;;
15679;SDS011;15488;48.114;11.532;2022-10-16T11:35:59;2.03;;;0.90;;
15679;SDS011;15488;48.114;11.532;2022-10-16T11:38:33;0.87;;;0.87;;
15679;SDS011;15488;48.114;11.532;2022-10-16T11:41:08;1.23;;;0.90;;
15679;SDS011;15488;48.114;11.532;2022-10-16T11:43:42;0.80;;;0.80;;
15679;SDS011;15488;48.114;11.532;2022-10-16T11:46:16;2.20;;;2.00;;
15679;SDS011;15488;48.114;11.532;2022-10-16T11:48:48;1.17;;;1.00;;
15679;SDS011;15488;48.114;11.532;2022-10-16T11:51:24;0.88;;;0.88;;
15679;SDS011;15488;48.114;11.532;2022-10-16T11:53:59;1.00;;;0.90;;
15679;SDS011;15488;48.114;11.532;2022-10-16T11:56:31;0.70;;;0.70;;
15679;SDS011;15488;48.114;11.532;2022-10-16T11:59:03;0.70;;;0.70;;
15679;SDS011;15488;48.114;11.532;2022-10-16T12:01:37;0.95;;;0.90;;
15679;SDS011;15488;48.114;11.532;2022-10-16T12:04:14;0.75;;;0.75;;
15679;SDS011;15488;48.114;11.532;2022-10-16T12:06:50;1.85;;;0.80;;
15679;SDS011;15488;48.114;11.532;2022-10-16T12:09:25;0.88;;;0.70;;
15679;SDS011;15488;48.114;11.532;2022-10-16T12:11:55;1.05;;;0.50;;
15679;SDS011;15488;48.114;11.532;2022-10-16T12:14:33;1.55;;;0.73;;
15679;SDS011;15488;48.114;11.532;2022-10-16T12:17:03;0.50;;;0.50;;
15679;SDS011;15488;48.114;11.532;2022-10-16T12:19:56;0.80;;;0.80;;
15679;SDS011;15488;48.114;11.532;2022-10-16T12:22:26;1.10;;;1.00;;
15679;SDS011;15488;48.114;11.532;2022-10-16T12:24:55;2.38;;;2.10;;
15679;SDS011;15488;48.114;11.532;2022-10-16T12:27:24;1.27;;;1.17;;
15679;SDS011;15488;48.114;11.532;2022-10-16T12:29:55;1.13;;;1.08;;
15679;SDS011;15488;48.114;11.532;2022-10-16T12:32:27;0.80;;;0.80;;
15679;SDS011;15488;48.114;11.532;2022-10-16T12:34:57;1.20;;;1.10;;
15679;SDS011;15488;48.114;11.532;2022-10-16T12:37:28;1.42;;;1.10;;
15679;SDS011;15488;48.114;11.532;2022-10-16T12:40:10;1.30;;;1.20;;
15679;SDS011;15488;48.114;11.532;2022-10-16T12:42:42;2.13;;;0.90;;
15679;SDS011;15488;48.114;11.532;2022-10-16T12:45:22;0.75;;;0.75;;
15679;SDS011;15488;48.114;11.532;2022-10-16T12:47:53;1.90;;;1.00;;
15679;SDS011;15488;48.114;11.532;2022-10-16T12:50:23;0.88;;;0.88;;
15679;SDS011;15488;48.114;11.532;2022-10-16T12:52:54;2.20;;;0.90;;
15679;SDS011;15488;48.114;11.532;2022-10-16T12:55:21;1.10;;;1.10;;
15679;SDS011;15488;48.114;11.532;2022-10-16T12:57:56;1.33;;;0.95;;
15679;SDS011;15488;48.114;11.532;2022-10-16T13:00:36;1.17;;;1.08;;
15679;SDS011;15488;48.114;11.532;2022-10-16T13:03:25;1.42;;;1.20;;
15679;SDS011;15488;48.114;11.532;2022-10-16T13:06:10;1.48;;;1.38;;
15679;SDS011;15488;48.114;11.532;2022-10-16T13:11:38;1.45;;;1.35;;
15679;SDS011;15488;48.114;11.532;2022-10-16T13:14:24;1.30;;;1.20;;
15679;SDS011;15488;48.114;11.532;2022-10-16T13:17:05;2.40;;;1.50;;
15679;SDS011;15488;48.114;11.532;2022-10-16T13:19:41;1.92;;;1.80;;
15679;SDS011;15488;48.114;11.532;2022-10-16T13:22:15;2.20;;;2.10;;
15679;SDS011;15488;48.114;11.532;2022-10-16T13:24:55;2.33;;;2.22;;
15679;SDS011;15488;48.114;11.532;2022-10-16T13:27:35;2.70;;;2.47;;
15679;SDS011;15488;48.114;11.532;2022-10-16T13:30:10;3.03;;;2.90;;
15679;SDS011;15488;48.114;11.532;2022-10-16T13:32:43;3.65;;;3.55;;
15679;SDS011;15488;48.114;11.532;2022-10-16T13:35:20;3.70;;;3.60;;
15679;SDS011;15488;48.114;11.532;2022-10-16T13:37:49;3.50;;;3.40;;
15679;SDS011;15488;48.114;11.532;2022-10-16T13:40:20;4.90;;;4.70;;
15679;SDS011;15488;48.114;11.532;2022-10-16T13:42:49;4.70;;;4.55;;
15679;SDS011;15488;48.114;11.532;2022-10-16T13:45:17;5.68;;;5.47;;
15679;SDS011;15488;48.114;11.532;2022-10-16T13:47:46;5.70;;;5.50;;
15679;SDS011;15488;48.114;11.532;2022-10-16T13:50:15;5.72;;;5.43;;
15679;SDS011;15488;48.114;11.532;2022-10-16T13:52:44;5.80;;;5.55;;
15679;SDS011;15488;48.114;11.532;2022-10-16T13:55:11;6.57;;;6.32;;
15679;SDS011;15488;48.114;11.532;2022-10-16T13:57:41;7.07;;;6.78;;
15679;SDS011;15488;48.114;11.532;2022-10-16T14:00:19;7.47;;;7.18;;
15679;SDS011;15488;48.114;11.532;2022-10-16T14:02:50;7.43;;;7.13;;
15679;SDS011;15488;48.114;11.532;2022-10-16T14:05:28;7.13;;;6.82;;
15679;SDS011;15488;48.114;11.532;2022-10-16T14:07:55;6.95;;;6.75;;
15679;SDS011;15488;48.114;11.532;2022-10-16T14:10:24;6.72;;;6.45;;
15679;SDS011;15488;48.114;11.532;2022-10-16T14:12:57;6.15;;;5.95;;
15679;SDS011;15488;48.114;11.532;2022-10-16T14:15:26;6.63;;;6.43;;
15679;SDS011;15488;48.114;11.532;2022-10-16T14:17:55;7.18;;;6.88;;
15679;SDS011;15488;48.114;11.532;2022-10-16T14:20:24;6.18;;;5.97;;
15679;SDS011;15488;48.114;11.532;2022-10-16T14:23:00;6.18;;;5.97;;
15679;SDS011;15488;48.114;11.532;2022-10-16T14:25:29;7.28;;;6.97;;
15679;SDS011;15488;48.114;11.532;2022-10-16T14:27:59;5.47;;;5.20;;
15679;SDS011;15488;48.114;11.532;2022-10-16T14:30:29;4.80;;;4.60;;
15679;SDS011;15488;48.114;11.532;2022-10-16T14:32:59;4.45;;;4.25;;
15679;SDS011;15488;48.114;11.532;2022-10-16T14:35:29;4.00;;;3.90;;
15679;SDS011;15488;48.114;11.532;2022-10-16T14:37:58;2.95;;;2.75;;
15679;SDS011;15488;48.114;11.532;2022-10-16T14:40:27;2.60;;;2.50;;
15679;SDS011;15488;48.114;11.532;2022-10-16T14:42:57;1.98;;;1.88;;
15679;SDS011;15488;48.114;11.532;2022-10-16T14:45:27;2.25;;;2.15;;
15679;SDS011;15488;48.114;11.532;2022-10-16T14:47:57;2.03;;;1.83;;
15679;SDS011;15488;48.114;11.532;2022-10-16T14:50:26;2.30;;;2.20;;
15679;SDS011;15488;48.114;11.532;2022-10-16T14:52:53;1.67;;;1.58;;
15679;SDS011;15488;48.114;11.532;2022-10-16T14:55:21;1.58;;;1.50;;
15679;SDS011;15488;48.114;11.532;2022-10-16T14:57:48;1.50;;;1.50;;
15679;SDS011;15488;48.114;11.532;2022-10-16T15:00:19;1.20;;;1.20;;
15679;SDS011;15488;48.114;11.532;2022-10-16T15:02:48;1.40;;;1.40;;
15679;SDS011;15488;48.114;11.532;2022-10-16T15:05:17;1.92;;;1.40;;
15679;SDS011;15488;48.114;11.532;2022-10-16T15:07:46;1.45;;;1.35;;